Lone Rock, WI

9:12 AM CDT on July 22, 2017 (GMT -0500)
Gotham Suburbs | | Change Station
Active Advisory: Flood Warning

Elev 778 ft 43.23 °N, 90.27 °W | Updated 21 seconds ago

Overcast
Overcast
71.9 °F
Feels Like 71.9 °F
N
2.0
Wind Variable Wind from NNE

Today
High -- | Low -- °F
--% Chance of Precip.
Yesterday
High -- | Low -- °F
Precip. -- in
Pressure 29.80 in
Visibility 10.0 miles
Clouds Overcast 700 ft
Dew Point 69 °F
Humidity 91%
Rainfall 0.00 in
Snow Depth Not available.
5:41 AM 8:32 PM
Waning Crescent, 1% visible
METAR KLNR 221356Z AUTO 00000KT 10SM OVC007 22/21 A2982 RMK AO2 SLP089 T02220206
Pressure 29.80 in
Visibility 10.0 miles
Clouds Overcast 700 ft
Dew Point 69 °F
Humidity 91%
Rainfall 0.00 in
Snow Depth Not available.
5:41 AM 8:32 PM
Waning Crescent, 1% visible
METAR KLNR 221356Z AUTO 00000KT 10SM OVC007 22/21 A2982 RMK AO2 SLP089 T02220206

Get Your Daily Forecast Email!

Thanks for signing up!

Be on the lookout for a verification email in your inbox.

You'll start receiving severe weather alerts in your inbox..

×

10-Day Weather Forecast

Almanac

Astronomy

Jul. 22, 2017 Rise Set
Actual Time
Civil Twilight
Nautical Twilight
Astronomical Twilight
Moon
Length of Visible Light
Length of Day
Tomorrow will be .
, % of the Moon is Illuminated

Today's Extremes

State Highs State Lows

Community

WunderPhotos

Category 6

Welcome to Category 6. This is the collective home for Weather Underground's featured writeups by Dr. Jeff Masters (right), Bob Henson (left), Chris Burt, and other regular contributors.

Nearby

Air Quality

  Air Quality AQ Index Pollutant
Not available.

Snow Depth

Station Depth Elevation

Earthquake Activity

City Distance Mag. Time & Date
Minimum magnitude displayed is 2.5.

Coastal Water Temperatures

Place Temperature

Stations

Nearby Weather Stations

Station Location Temp. Windchill Dew Point Humidity Wind Precip. Elev Updated Type
                   

Watches & Warnings

Flood Warning
Issued: 5:26 AM CDT Jul. 22, 2017 – National Weather Service

The Flood Warning continues for
the Kickapoo river at Viola.
* Until Tuesday evening... or until the warning is cancelled.
* At 10:20 PM Friday the stage was 18.3 feet.
* Flood stage is 14.0 feet.
* Major flooding is occurring.
* Forecast... the river will continue to fall... dropping below flood
stage Monday evening.
* Impact... at 17.0 feet... water is flowing over Highway 56 east of
Viola.


Lat... Lon 4353 9064 4347 9066 4346 9072 4348 9073 4354 9070